Time;durP1;ratioP1;P1;durP2;ratioP2;P2;SDS_P1;SDS_P2;PMS_P1;PMS_P2;Temp;Humidity;BMP_temperature;BMP_pressure;BME280_temperature;BME280_humidity;BME280_pressure;Samples;Min_cycle;Max_cycle;Signal;HPM_P1;HPM_P2
2021/12/24 00:00:35;;;;;;;;;;;8.50;99.90;;;;;;4996217;28;19955;-76
2021/12/24 00:03:00;;;;;;;;;;;8.50;99.90;;;;;;4996987;28;20374;-76
2021/12/24 00:05:26;;;;;;;;;;;8.60;99.90;;;;;;4997313;28;19906;-76
2021/12/24 00:07:52;;;;;;;;;;;8.60;99.90;;;;;;4996269;28;19956;-77
2021/12/24 00:10:17;;;;;;;;;;;8.60;99.90;;;;;;4996837;28;19910;-84
2021/12/24 00:12:55;;;;;;;;;;;8.60;99.90;;;;;;4998282;28;19929;-76
2021/12/24 00:17:51;;;;;;;;;;;8.60;99.90;;;;;;4996892;28;20020;-77
2021/12/24 00:20:59;;;;;;;;;;;8.60;99.90;;;;;;4998033;28;20035;-77
2021/12/24 00:36:36;;;;;;;;;;;8.60;99.90;;;;;;4998062;28;19924;-75
2021/12/24 00:39:02;;;;;;;;;;;8.70;99.90;;;;;;4998668;28;19910;-75
2021/12/24 00:41:27;;;;;;;;;;;8.70;99.90;;;;;;4996826;28;19937;-77
2021/12/24 00:43:53;;;;;;;;;;;8.70;99.90;;;;;;4996241;28;19998;-75
2021/12/24 00:46:18;;;;;;;;;;;8.70;99.90;;;;;;4996732;28;20323;-76
2021/12/24 00:48:46;;;;;;;;;;;8.70;99.90;;;;;;4996540;28;19910;-75
2021/12/24 00:51:22;;;;;;;;;;;8.70;99.90;;;;;;4995190;28;19905;-75
2021/12/24 00:56:15;;;;;;;;;;;8.70;99.90;;;;;;4995315;28;20004;-75
2021/12/24 00:58:41;;;;;;;;;;;8.70;99.90;;;;;;4995343;28;19917;-75
2021/12/24 01:01:07;;;;;;;;;;;8.70;99.90;;;;;;4997133;28;20335;-76
2021/12/24 01:03:32;;;;;;;;;;;8.70;99.90;;;;;;4996021;28;19992;-75
2021/12/24 01:05:58;;;;;;;;;;;8.80;99.90;;;;;;4979627;28;19956;-75
2021/12/24 01:08:24;;;;;;;;;;;8.80;99.90;;;;;;4994722;28;20461;-85
2021/12/24 01:10:52;;;;;;;;;;;8.80;99.90;;;;;;4995897;28;20342;-77
2021/12/24 01:13:17;;;;;;;;;;;8.80;99.90;;;;;;4994489;28;19906;-76
2021/12/24 01:16:01;;;;;;;;;;;8.80;99.90;;;;;;4978229;28;20004;-76
2021/12/24 01:21:22;;;;;;;;;;;8.90;99.90;;;;;;4996156;28;19909;-79
2021/12/24 01:26:20;;;;;;;;;;;8.90;99.90;;;;;;4995695;28;19910;-76
2021/12/24 01:44:58;;;;;;;;;;;9.00;99.90;;;;;;4995740;28;19913;-77
2021/12/24 01:47:24;;;;;;;;;;;9.10;99.90;;;;;;4977890;28;20071;-76
2021/12/24 01:49:50;;;;;;;;;;;9.00;99.90;;;;;;4995302;28;20349;-77
2021/12/24 01:52:16;;;;;;;;;;;9.10;99.90;;;;;;4995268;28;19905;-80
2021/12/24 01:54:43;;;;;;;;;;;9.10;99.90;;;;;;4977537;28;20005;-78
2021/12/24 01:57:08;;;;;;;;;;;9.10;99.90;;;;;;4994848;28;19910;-76
2021/12/24 01:59:34;;;;;;;;;;;9.10;99.90;;;;;;4994703;28;19918;-77
2021/12/24 02:01:59;;;;;;;;;;;9.10;99.90;;;;;;4994856;28;19956;-76
2021/12/24 02:04:25;;;;;;;;;;;9.20;99.90;;;;;;4993678;28;20313;-78
2021/12/24 02:06:50;;;;;;;;;;;9.20;99.90;;;;;;4993789;28;20303;-77
2021/12/24 02:09:16;;;;;;;;;;;9.20;99.90;;;;;;4994965;28;20322;-77
2021/12/24 02:11:41;;;;;;;;;;;9.20;99.90;;;;;;4993842;28;19972;-77
2021/12/24 02:14:09;;;;;;;;;;;9.20;99.90;;;;;;4994598;28;19913;-77
2021/12/24 02:30:18;;;;;;;;;;;9.20;99.90;;;;;;4994297;28;19912;-76
2021/12/24 02:32:43;;;;;;;;;;;9.20;99.90;;;;;;4994048;28;19979;-76
2021/12/24 02:35:10;;;;;;;;;;;9.30;99.90;;;;;;4994433;28;19914;-77
2021/12/24 02:37:35;;;;;;;;;;;9.20;99.90;;;;;;4992943;28;19932;-80
2021/12/24 02:40:01;;;;;;;;;;;9.30;99.90;;;;;;4994400;28;19988;-76
2021/12/24 02:42:27;;;;;;;;;;;9.30;99.90;;;;;;4995751;28;19941;-76
2021/12/24 02:44:52;;;;;;;;;;;9.30;99.90;;;;;;4994801;28;19909;-75
2021/12/24 02:55:05;;;;;;;;;;;9.30;99.90;;;;;;4994672;28;19976;-76
2021/12/24 02:57:31;;;;;;;;;;;9.30;99.90;;;;;;4992846;28;19913;-76
2021/12/24 03:00:06;;;;;;;;;;;9.30;99.90;;;;;;4993574;28;19948;-76
2021/12/24 03:02:33;;;;;;;;;;;9.20;99.90;;;;;;4992925;28;19905;-77
2021/12/24 03:04:58;;;;;;;;;;;9.30;99.90;;;;;;4993175;28;20326;-76
2021/12/24 03:07:24;;;;;;;;;;;9.20;99.90;;;;;;4992596;28;19955;-76
2021/12/24 03:09:50;;;;;;;;;;;9.20;99.90;;;;;;4994322;28;20365;-75
2021/12/24 03:12:15;;;;;;;;;;;9.30;99.90;;;;;;4992435;28;20273;-77
2021/12/24 03:14:41;;;;;;;;;;;9.30;99.90;;;;;;4992923;28;19917;-76
2021/12/24 03:17:11;;;;;;;;;;;9.30;99.90;;;;;;4993100;28;19909;-75
2021/12/24 03:19:37;;;;;;;;;;;9.30;99.90;;;;;;4977039;28;19933;-77
2021/12/24 03:24:35;;;;;;;;;;;9.30;99.90;;;;;;4993703;28;19906;-75
2021/12/24 03:27:00;;;;;;;;;;;9.30;99.90;;;;;;4992918;28;19945;-77
2021/12/24 03:29:26;;;;;;;;;;;9.30;99.90;;;;;;4993860;28;19965;-76
2021/12/24 03:31:51;;;;;;;;;;;9.30;99.90;;;;;;4992868;28;19909;-76
2021/12/24 03:34:18;;;;;;;;;;;9.30;99.90;;;;;;4992408;28;19910;-77
2021/12/24 03:36:44;;;;;;;;;;;9.30;99.90;;;;;;4993829;28;19916;-77
2021/12/24 03:39:10;;;;;;;;;;;9.40;99.90;;;;;;4992210;28;19918;-77
2021/12/24 03:41:35;;;;;;;;;;;9.40;99.90;;;;;;4992546;28;19913;-77
2021/12/24 03:44:01;;;;;;;;;;;9.40;99.90;;;;;;4992776;28;19942;-76
2021/12/24 03:46:38;;;;;;;;;;;9.40;99.90;;;;;;4993083;28;19942;-76
2021/12/24 03:49:14;;;;;;;;;;;9.40;99.90;;;;;;4993817;28;19917;-75
2021/12/24 03:52:13;;;;;;;;;;;9.40;99.90;;;;;;4992833;28;20320;-76
2021/12/24 03:57:12;;;;;;;;;;;9.40;99.90;;;;;;4994230;28;19916;-76
2021/12/24 03:59:37;;;;;;;;;;;9.40;99.90;;;;;;4993607;28;19906;-79
2021/12/24 04:02:03;;;;;;;;;;;9.40;99.90;;;;;;4993160;28;19913;-76
2021/12/24 04:04:28;;;;;;;;;;;9.40;99.90;;;;;;4977318;28;19910;-76
2021/12/24 04:06:54;;;;;;;;;;;9.40;99.90;;;;;;4996008;28;20048;-75
2021/12/24 04:09:21;;;;;;;;;;;9.50;99.90;;;;;;4995595;28;19917;-76
2021/12/24 04:11:47;;;;;;;;;;;9.50;99.90;;;;;;4996453;28;20326;-78
2021/12/24 04:14:12;;;;;;;;;;;9.50;99.90;;;;;;4996409;28;19909;-78
2021/12/24 04:16:38;;;;;;;;;;;9.50;99.90;;;;;;4995824;28;19912;-78
2021/12/24 04:24:51;;;;;;;;;;;9.50;99.90;;;;;;4997109;28;20044;-75
2021/12/24 04:27:17;;;;;;;;;;;9.50;99.90;;;;;;4996475;28;20004;-77
2021/12/24 04:29:43;;;;;;;;;;;9.50;99.90;;;;;;4996803;28;20007;-76
2021/12/24 04:32:26;;;;;;;;;;;9.50;99.90;;;;;;4979209;28;19999;-75
2021/12/24 04:35:02;;;;;;;;;;;9.50;99.90;;;;;;4981791;28;20312;-75
2021/12/24 04:51:24;;;;;;;;;;;9.60;99.90;;;;;;4995506;28;19960;-76
2021/12/24 05:04:32;;;;;;;;;;;9.60;99.90;;;;;;4996385;28;20362;-76
2021/12/24 05:07:07;;;;;;;;;;;9.60;99.90;;;;;;4979406;28;19910;-75
2021/12/24 05:09:35;;;;;;;;;;;9.70;99.90;;;;;;4979836;28;19910;-75
2021/12/24 05:12:01;;;;;;;;;;;9.70;99.90;;;;;;4979460;28;19910;-76
2021/12/24 05:14:30;;;;;;;;;;;9.70;99.90;;;;;;4996520;28;19924;-76
2021/12/24 05:17:15;;;;;;;;;;;9.70;99.90;;;;;;4996412;28;19980;-76
2021/12/24 05:22:25;;;;;;;;;;;9.70;99.90;;;;;;4995914;28;20016;-76
2021/12/24 05:24:50;;;;;;;;;;;9.70;99.90;;;;;;4978291;28;19945;-77
2021/12/24 05:27:16;;;;;;;;;;;9.70;99.90;;;;;;4994667;28;20362;-76
2021/12/24 05:29:41;;;;;;;;;;;9.80;99.90;;;;;;4995977;28;19909;-77
2021/12/24 05:32:07;;;;;;;;;;;9.80;99.90;;;;;;4979325;28;20303;-76
2021/12/24 05:34:33;;;;;;;;;;;9.70;99.90;;;;;;4995544;28;19917;-76
2021/12/24 05:36:58;;;;;;;;;;;9.70;99.90;;;;;;4996748;28;19916;-76
2021/12/24 05:39:24;;;;;;;;;;;9.70;99.90;;;;;;4996058;28;19913;-77
2021/12/24 05:41:50;;;;;;;;;;;9.80;99.90;;;;;;4996412;28;19906;-76
2021/12/24 05:44:17;;;;;;;;;;;9.80;99.90;;;;;;4994653;28;19905;-76
2021/12/24 05:46:44;;;;;;;;;;;9.70;99.90;;;;;;4995043;28;19909;-75
2021/12/24 05:49:09;;;;;;;;;;;9.80;99.90;;;;;;4994370;28;19906;-76
2021/12/24 05:51:36;;;;;;;;;;;9.80;99.90;;;;;;4995646;28;20235;-76
2021/12/24 05:54:02;;;;;;;;;;;9.80;99.90;;;;;;4994105;28;19917;-76
2021/12/24 05:56:27;;;;;;;;;;;9.70;99.90;;;;;;4994001;28;19914;-76
2021/12/24 05:58:53;;;;;;;;;;;9.70;99.90;;;;;;4994397;28;20004;-76
2021/12/24 06:01:18;;;;;;;;;;;9.80;99.90;;;;;;4994845;28;19937;-76
2021/12/24 06:03:44;;;;;;;;;;;9.80;99.90;;;;;;4993632;28;20385;-77
2021/12/24 06:06:10;;;;;;;;;;;9.80;99.90;;;;;;4994666;28;20061;-76
2021/12/24 06:08:35;;;;;;;;;;;9.80;99.90;;;;;;4994658;28;20381;-77
2021/12/24 06:11:01;;;;;;;;;;;9.80;99.90;;;;;;4993555;28;19910;-81
2021/12/24 06:13:28;;;;;;;;;;;9.80;99.90;;;;;;4993647;28;19910;-76
2021/12/24 06:15:54;;;;;;;;;;;9.80;99.90;;;;;;4993377;28;19917;-76
2021/12/24 06:18:24;;;;;;;;;;;9.80;99.90;;;;;;4993364;28;20311;-76
2021/12/24 06:20:51;;;;;;;;;;;9.80;99.90;;;;;;4994736;28;19917;-76
2021/12/24 06:23:18;;;;;;;;;;;9.80;99.90;;;;;;4993799;28;19945;-78
2021/12/24 06:25:44;;;;;;;;;;;9.80;99.90;;;;;;4994636;28;20412;-76
2021/12/24 06:28:09;;;;;;;;;;;9.80;99.90;;;;;;4976133;28;20000;-75
2021/12/24 06:30:37;;;;;;;;;;;9.80;99.90;;;;;;4977099;28;20055;-75
2021/12/24 06:33:03;;;;;;;;;;;9.80;99.90;;;;;;4993207;28;19964;-83
2021/12/24 06:35:28;;;;;;;;;;;9.80;99.90;;;;;;4994762;28;20297;-76
2021/12/24 06:37:56;;;;;;;;;;;9.80;99.90;;;;;;4976675;28;19933;-76
2021/12/24 06:40:22;;;;;;;;;;;9.80;99.90;;;;;;4977268;28;19956;-76
2021/12/24 06:42:48;;;;;;;;;;;9.80;99.90;;;;;;4994509;28;20389;-76
2021/12/24 06:45:13;;;;;;;;;;;9.80;99.90;;;;;;4993908;28;19914;-78
2021/12/24 06:47:39;;;;;;;;;;;9.80;99.90;;;;;;4994730;28;19909;-76
2021/12/24 06:50:05;;;;;;;;;;;9.90;99.90;;;;;;4993159;28;19914;-84
2021/12/24 06:52:31;;;;;;;;;;;9.90;99.90;;;;;;4993354;28;20334;-76
2021/12/24 06:54:56;;;;;;;;;;;9.80;99.90;;;;;;4993227;28;19914;-78
2021/12/24 06:57:24;;;;;;;;;;;9.90;99.90;;;;;;4992703;28;19917;-78
2021/12/24 06:59:49;;;;;;;;;;;9.90;99.90;;;;;;4994731;28;19977;-77
2021/12/24 07:02:15;;;;;;;;;;;9.90;99.90;;;;;;4993147;28;19952;-77
2021/12/24 07:04:40;;;;;;;;;;;9.80;99.90;;;;;;4994015;28;19955;-78
2021/12/24 07:07:06;;;;;;;;;;;9.80;99.90;;;;;;4993719;28;19916;-84
2021/12/24 07:09:31;;;;;;;;;;;9.80;99.90;;;;;;4994210;28;20231;-77
2021/12/24 07:11:57;;;;;;;;;;;9.90;99.90;;;;;;4992967;28;20274;-77
2021/12/24 07:14:23;;;;;;;;;;;9.90;99.90;;;;;;4992735;28;19942;-78
2021/12/24 07:16:49;;;;;;;;;;;9.90;99.90;;;;;;4976736;28;20316;-78
2021/12/24 07:19:15;;;;;;;;;;;9.90;99.90;;;;;;4992698;28;19976;-77
2021/12/24 07:21:41;;;;;;;;;;;9.90;99.90;;;;;;4993383;28;19910;-77
2021/12/24 07:24:07;;;;;;;;;;;9.90;99.90;;;;;;4992587;28;19906;-83
2021/12/24 07:26:33;;;;;;;;;;;9.90;99.90;;;;;;4976333;28;19969;-79
2021/12/24 07:28:58;;;;;;;;;;;9.90;99.90;;;;;;4976388;28;19909;-78
2021/12/24 07:31:24;;;;;;;;;;;10.00;99.90;;;;;;4992501;28;19910;-77
2021/12/24 07:33:49;;;;;;;;;;;9.90;99.90;;;;;;4992334;28;20000;-78
2021/12/24 07:36:15;;;;;;;;;;;9.90;99.90;;;;;;4994344;28;19925;-77
2021/12/24 07:38:40;;;;;;;;;;;10.00;99.90;;;;;;4992728;28;19922;-78
2021/12/24 07:41:06;;;;;;;;;;;9.90;99.90;;;;;;4997170;28;19932;-76
2021/12/24 07:43:32;;;;;;;;;;;9.90;99.90;;;;;;4997384;28;19917;-77
2021/12/24 07:45:58;;;;;;;;;;;9.90;99.90;;;;;;4996929;28;20244;-77
2021/12/24 07:48:28;;;;;;;;;;;9.90;99.90;;;;;;4998403;28;20004;-78
2021/12/24 07:53:21;;;;;;;;;;;9.90;99.90;;;;;;4997226;28;19910;-78
2021/12/24 07:55:46;;;;;;;;;;;10.00;99.90;;;;;;4996525;28;19921;-78
2021/12/24 07:58:17;;;;;;;;;;;10.00;99.90;;;;;;4995940;28;20008;-82
2021/12/24 08:00:43;;;;;;;;;;;10.00;99.90;;;;;;4997666;28;19906;-77
2021/12/24 08:03:09;;;;;;;;;;;10.00;99.90;;;;;;4997400;28;19910;-78
2021/12/24 08:05:38;;;;;;;;;;;10.00;99.90;;;;;;4979889;28;19914;-78
2021/12/24 08:08:03;;;;;;;;;;;10.00;99.90;;;;;;4997419;28;19905;-78
2021/12/24 08:10:31;;;;;;;;;;;10.00;99.90;;;;;;4996122;28;20322;-78
2021/12/24 08:12:56;;;;;;;;;;;10.00;99.90;;;;;;4996076;28;19906;-78
2021/12/24 08:15:22;;;;;;;;;;;10.00;99.90;;;;;;4997205;28;19971;-77
2021/12/24 08:17:47;;;;;;;;;;;10.00;99.90;;;;;;4996420;28;20000;-76
2021/12/24 08:20:14;;;;;;;;;;;10.10;99.90;;;;;;4996144;28;19914;-78
2021/12/24 08:22:39;;;;;;;;;;;10.10;99.90;;;;;;4995637;28;19905;-77
2021/12/24 08:25:06;;;;;;;;;;;10.10;99.90;;;;;;4997155;28;19906;-77
2021/12/24 08:27:33;;;;;;;;;;;10.10;99.90;;;;;;4995871;28;19937;-76
2021/12/24 08:29:58;;;;;;;;;;;10.10;99.90;;;;;;4997002;28;20357;-76
2021/12/24 08:32:24;;;;;;;;;;;10.10;99.90;;;;;;4997210;28;20137;-82
2021/12/24 08:34:52;;;;;;;;;;;10.10;99.90;;;;;;4996380;28;19972;-77
2021/12/24 08:37:17;;;;;;;;;;;10.10;99.90;;;;;;4979708;28;19938;-84
2021/12/24 08:39:43;;;;;;;;;;;10.10;99.90;;;;;;4995651;28;20369;-78
2021/12/24 08:42:08;;;;;;;;;;;10.10;99.90;;;;;;4979051;28;19996;-78
2021/12/24 08:44:35;;;;;;;;;;;10.20;99.90;;;;;;4996196;28;19968;-78
2021/12/24 08:47:01;;;;;;;;;;;10.10;99.90;;;;;;4996118;28;19972;-78
2021/12/24 08:49:27;;;;;;;;;;;10.10;99.90;;;;;;4997023;28;20302;-77
2021/12/24 08:51:53;;;;;;;;;;;10.20;99.90;;;;;;4994343;28;19906;-78
2021/12/24 08:54:21;;;;;;;;;;;10.20;99.90;;;;;;4996562;28;19906;-82
2021/12/24 08:56:47;;;;;;;;;;;10.20;99.90;;;;;;4996277;28;19948;-77
2021/12/24 08:59:12;;;;;;;;;;;10.20;99.90;;;;;;4996547;28;19910;-78
2021/12/24 09:01:42;;;;;;;;;;;10.20;99.90;;;;;;4979705;28;19910;-78
2021/12/24 09:04:08;;;;;;;;;;;10.20;99.90;;;;;;4995245;28;19949;-78
2021/12/24 09:06:34;;;;;;;;;;;10.20;99.90;;;;;;4996233;28;20005;-77
2021/12/24 09:08:59;;;;;;;;;;;10.20;99.90;;;;;;4995342;28;19910;-79
2021/12/24 09:11:26;;;;;;;;;;;10.20;99.90;;;;;;4995873;28;20285;-79
2021/12/24 09:13:52;;;;;;;;;;;10.20;99.90;;;;;;4994484;28;19913;-80
2021/12/24 09:16:18;;;;;;;;;;;10.20;99.90;;;;;;4994526;28;19914;-79
2021/12/24 09:18:44;;;;;;;;;;;10.30;99.90;;;;;;4994684;28;19929;-78
2021/12/24 09:21:15;;;;;;;;;;;10.30;99.90;;;;;;4978888;28;20008;-80
2021/12/24 09:23:43;;;;;;;;;;;10.30;99.90;;;;;;4994569;28;19906;-79
2021/12/24 09:26:09;;;;;;;;;;;10.30;99.90;;;;;;4994126;28;19906;-80
2021/12/24 09:28:34;;;;;;;;;;;10.30;99.90;;;;;;4978328;28;19984;-78
2021/12/24 09:31:00;;;;;;;;;;;10.40;99.90;;;;;;4994698;28;19910;-78
2021/12/24 09:33:25;;;;;;;;;;;10.40;99.90;;;;;;4996312;28;20004;-80
2021/12/24 09:35:51;;;;;;;;;;;10.50;99.90;;;;;;4977975;28;20005;-78
2021/12/24 09:38:17;;;;;;;;;;;10.50;99.90;;;;;;4977913;28;19995;-79
2021/12/24 09:40:42;;;;;;;;;;;10.50;99.90;;;;;;4977972;28;19910;-79
2021/12/24 09:43:08;;;;;;;;;;;10.50;99.90;;;;;;4995341;28;19914;-79
2021/12/24 09:45:33;;;;;;;;;;;10.50;99.90;;;;;;4978102;28;19917;-78
2021/12/24 09:47:59;;;;;;;;;;;10.50;99.90;;;;;;4993912;28;19905;-79
2021/12/24 09:50:25;;;;;;;;;;;10.50;99.90;;;;;;4977666;28;19914;-84
2021/12/24 09:52:50;;;;;;;;;;;10.50;99.90;;;;;;4995617;28;19910;-79
2021/12/24 09:55:18;;;;;;;;;;;10.50;99.90;;;;;;4995525;28;19918;-78
2021/12/24 09:57:44;;;;;;;;;;;10.50;99.90;;;;;;4994356;28;19913;-78
2021/12/24 10:00:14;;;;;;;;;;;10.50;99.90;;;;;;4993629;28;19909;-78
2021/12/24 10:02:43;;;;;;;;;;;10.60;99.90;;;;;;4993839;28;20353;-79
2021/12/24 10:05:27;;;;;;;;;;;10.60;99.90;;;;;;4995368;28;19906;-79
2021/12/24 10:08:00;;;;;;;;;;;10.60;99.90;;;;;;4996146;28;19906;-79
2021/12/24 10:10:28;;;;;;;;;;;10.70;99.90;;;;;;4998480;28;20020;-79
2021/12/24 10:12:54;;;;;;;;;;;10.70;99.90;;;;;;4998329;28;20016;-78
2021/12/24 10:15:20;;;;;;;;;;;10.80;99.90;;;;;;5000123;28;19921;-78
2021/12/24 10:17:46;;;;;;;;;;;10.80;99.90;;;;;;4997391;28;19910;-79
2021/12/24 10:20:16;;;;;;;;;;;10.80;99.90;;;;;;4995303;28;19910;-78
2021/12/24 10:22:48;;;;;;;;;;;10.80;99.90;;;;;;4993531;28;19906;-79
2021/12/24 10:25:14;;;;;;;;;;;10.80;99.90;;;;;;4994981;28;19912;-79
2021/12/24 10:27:41;;;;;;;;;;;10.80;99.90;;;;;;4994535;28;19928;-80
2021/12/24 10:30:21;;;;;;;;;;;10.90;99.90;;;;;;4993939;28;20000;-78
2021/12/24 10:32:48;;;;;;;;;;;10.90;99.90;;;;;;4993160;28;19942;-80
2021/12/24 10:35:29;;;;;;;;;;;10.90;99.90;;;;;;4996257;28;19953;-80
2021/12/24 10:38:30;;;;;;;;;;;11.00;99.90;;;;;;4994510;28;19925;-79
2021/12/24 10:40:58;;;;;;;;;;;10.90;99.90;;;;;;4976844;28;19906;-82
2021/12/24 10:43:24;;;;;;;;;;;10.90;99.90;;;;;;4994037;28;19905;-81
2021/12/24 10:46:07;;;;;;;;;;;10.80;99.90;;;;;;4993345;28;20322;-80
2021/12/24 10:48:32;;;;;;;;;;;10.80;99.90;;;;;;4994098;28;19905;-82
2021/12/24 10:51:06;;;;;;;;;;;10.70;99.90;;;;;;4993298;28;19913;-80
2021/12/24 10:53:51;;;;;;;;;;;10.70;99.90;;;;;;4978020;28;19909;-86
2021/12/24 10:56:23;;;;;;;;;;;10.70;99.90;;;;;;4992741;28;19914;-79
2021/12/24 10:58:49;;;;;;;;;;;10.80;99.90;;;;;;4994672;28;19905;-80
2021/12/24 11:01:15;;;;;;;;;;;10.70;99.90;;;;;;4992900;28;19913;-80
2021/12/24 11:03:43;;;;;;;;;;;10.70;99.90;;;;;;4994409;28;19924;-80
2021/12/24 11:06:10;;;;;;;;;;;10.70;99.90;;;;;;4992822;28;19910;-80
2021/12/24 11:08:36;;;;;;;;;;;10.70;99.90;;;;;;4993341;28;19910;-85
2021/12/24 11:11:04;;;;;;;;;;;10.70;99.90;;;;;;4995040;28;19953;-79
2021/12/24 11:13:38;;;;;;;;;;;10.70;99.90;;;;;;4993039;28;20306;-82
2021/12/24 11:16:04;;;;;;;;;;;10.70;99.90;;;;;;4998157;28;19914;-80
2021/12/24 11:18:30;;;;;;;;;;;10.70;99.90;;;;;;4997999;28;19928;-78
2021/12/24 11:21:04;;;;;;;;;;;10.70;99.90;;;;;;4997154;28;20330;-80
2021/12/24 11:23:31;;;;;;;;;;;10.70;99.90;;;;;;4997287;28;19906;-78
2021/12/24 11:25:58;;;;;;;;;;;10.70;99.90;;;;;;4998379;28;19901;-79
2021/12/24 11:28:24;;;;;;;;;;;10.80;99.90;;;;;;4996866;28;19913;-78
2021/12/24 11:30:52;;;;;;;;;;;10.80;99.90;;;;;;4998757;28;19974;-79
2021/12/24 11:33:22;;;;;;;;;;;10.80;99.90;;;;;;4998625;28;20008;-80
2021/12/24 11:35:49;;;;;;;;;;;10.80;99.90;;;;;;4999309;28;20366;-79
2021/12/24 11:38:16;;;;;;;;;;;10.80;99.90;;;;;;4998107;28;19922;-79
2021/12/24 11:40:44;;;;;;;;;;;10.70;99.90;;;;;;4998178;28;19906;-80
2021/12/24 11:43:09;;;;;;;;;;;10.70;99.90;;;;;;4996514;28;19913;-78
2021/12/24 11:45:35;;;;;;;;;;;10.80;99.90;;;;;;4996330;28;19913;-80
2021/12/24 11:48:02;;;;;;;;;;;10.80;99.90;;;;;;4996008;28;19906;-79
2021/12/24 11:50:28;;;;;;;;;;;10.80;99.90;;;;;;4980316;28;19996;-81
2021/12/24 11:52:58;;;;;;;;;;;10.80;99.90;;;;;;4996245;28;19945;-79
2021/12/24 11:55:25;;;;;;;;;;;10.80;99.90;;;;;;4998024;28;20012;-81
2021/12/24 11:57:55;;;;;;;;;;;10.70;99.90;;;;;;4996315;28;20421;-80
2021/12/24 12:00:22;;;;;;;;;;;10.70;99.90;;;;;;4996162;28;20257;-81
2021/12/24 12:02:50;;;;;;;;;;;10.80;99.90;;;;;;4998138;28;19906;-80
2021/12/24 12:05:24;;;;;;;;;;;10.80;99.90;;;;;;4996048;28;20040;-79
2021/12/24 12:07:51;;;;;;;;;;;10.80;99.90;;;;;;4995527;28;19996;-79
2021/12/24 12:10:42;;;;;;;;;;;10.80;99.90;;;;;;4979641;28;19996;-80
2021/12/24 12:13:28;;;;;;;;;;;10.80;99.90;;;;;;4996980;28;19906;-80
2021/12/24 12:15:57;;;;;;;;;;;10.80;99.90;;;;;;4995495;28;19913;-80
2021/12/24 12:18:28;;;;;;;;;;;10.90;99.90;;;;;;4995637;28;19933;-81
2021/12/24 12:21:07;;;;;;;;;;;10.80;99.90;;;;;;4997024;28;19963;-80
2021/12/24 12:23:53;;;;;;;;;;;10.80;99.90;;;;;;4997502;28;19905;-80
2021/12/24 12:26:38;;;;;;;;;;;10.80;99.90;;;;;;4995886;28;20357;-79
2021/12/24 12:29:22;;;;;;;;;;;10.80;99.90;;;;;;4995459;28;20362;-80
2021/12/24 12:31:50;;;;;;;;;;;10.80;99.90;;;;;;4996540;28;19913;-81
2021/12/24 12:34:34;;;;;;;;;;;10.80;99.90;;;;;;4995994;28;20326;-80
2021/12/24 12:37:18;;;;;;;;;;;10.80;99.90;;;;;;4997565;28;19985;-80
2021/12/24 12:39:44;;;;;;;;;;;10.80;99.90;;;;;;4997929;28;19909;-84
2021/12/24 12:42:13;;;;;;;;;;;10.90;99.90;;;;;;4996071;28;19957;-80
2021/12/24 12:44:41;;;;;;;;;;;10.90;99.90;;;;;;5001942;28;19913;-80
2021/12/24 12:47:08;;;;;;;;;;;10.90;99.90;;;;;;4995453;28;19913;-81
2021/12/24 12:49:35;;;;;;;;;;;10.90;99.90;;;;;;4995775;28;19949;-81
2021/12/24 12:52:22;;;;;;;;;;;10.90;99.90;;;;;;5000666;28;20005;-80
2021/12/24 12:54:49;;;;;;;;;;;10.90;99.90;;;;;;5000036;28;19910;-83
2021/12/24 12:57:25;;;;;;;;;;;11.00;99.90;;;;;;4996429;28;19920;-79
2021/12/24 13:00:12;;;;;;;;;;;11.00;99.90;;;;;;4996054;28;20056;-79
2021/12/24 13:02:56;;;;;;;;;;;11.00;99.90;;;;;;4995094;28;19913;-80
2021/12/24 13:05:22;;;;;;;;;;;11.00;99.90;;;;;;4994975;28;19905;-78
2021/12/24 13:07:48;;;;;;;;;;;11.00;99.90;;;;;;4997241;28;19909;-84
2021/12/24 13:10:17;;;;;;;;;;;11.00;99.90;;;;;;4996053;28;19986;-79
2021/12/24 13:12:43;;;;;;;;;;;11.00;99.90;;;;;;4996804;28;20060;-80
2021/12/24 13:15:15;;;;;;;;;;;11.00;99.90;;;;;;4996516;28;19906;-80
2021/12/24 13:17:45;;;;;;;;;;;11.10;99.90;;;;;;4996577;28;19909;-80
2021/12/24 13:20:30;;;;;;;;;;;11.10;99.90;;;;;;4995106;28;19913;-81
2021/12/24 13:22:56;;;;;;;;;;;11.00;99.90;;;;;;4995438;28;19906;-83
2021/12/24 13:25:22;;;;;;;;;;;11.00;99.90;;;;;;4995386;28;20009;-79
2021/12/24 13:27:51;;;;;;;;;;;11.00;99.90;;;;;;4996387;28;19912;-80
2021/12/24 13:30:17;;;;;;;;;;;11.00;99.90;;;;;;4996490;28;19905;-81
2021/12/24 13:32:42;;;;;;;;;;;11.00;99.90;;;;;;4997876;28;19906;-81
2021/12/24 13:35:08;;;;;;;;;;;10.90;99.90;;;;;;4996610;28;19910;-80
2021/12/24 13:37:34;;;;;;;;;;;10.90;99.90;;;;;;4997673;28;19925;-81
2021/12/24 13:40:00;;;;;;;;;;;11.00;99.90;;;;;;4982825;28;20251;-80
2021/12/24 13:42:25;;;;;;;;;;;11.00;99.90;;;;;;4997061;28;19912;-80
2021/12/24 13:44:59;;;;;;;;;;;11.00;99.90;;;;;;4980313;28;19945;-85
2021/12/24 13:47:51;;;;;;;;;;;10.90;99.90;;;;;;4999034;28;19909;-81
2021/12/24 13:55:38;;;;;;;;;;;10.90;99.90;;;;;;5003352;28;19968;-82
2021/12/24 13:58:08;;;;;;;;;;;11.00;99.90;;;;;;5000295;28;19905;-80
2021/12/24 14:00:35;;;;;;;;;;;11.00;99.90;;;;;;4998437;28;19912;-82
2021/12/24 14:03:03;;;;;;;;;;;10.90;99.90;;;;;;4997909;28;19906;-82
2021/12/24 14:05:29;;;;;;;;;;;10.90;99.90;;;;;;4999276;28;20354;-83
2021/12/24 14:08:08;;;;;;;;;;;10.80;99.90;;;;;;5002610;28;20061;-86
2021/12/24 14:10:34;;;;;;;;;;;10.80;99.90;;;;;;4996335;28;19933;-81
2021/12/24 14:13:06;;;;;;;;;;;10.80;99.90;;;;;;4978196;28;20354;-80
2021/12/24 14:15:43;;;;;;;;;;;10.70;99.90;;;;;;4994393;28;19995;-80
2021/12/24 14:18:32;;;;;;;;;;;10.60;99.90;;;;;;4994301;28;20396;-81
2021/12/24 14:23:46;;;;;;;;;;;10.50;99.90;;;;;;4993807;28;19906;-80
2021/12/24 14:26:12;;;;;;;;;;;10.40;99.90;;;;;;4977365;28;19939;-81
2021/12/24 14:28:48;;;;;;;;;;;10.40;99.90;;;;;;4993824;28;19912;-80
2021/12/24 14:31:14;;;;;;;;;;;10.40;99.90;;;;;;4994638;28;19917;-82
2021/12/24 14:33:45;;;;;;;;;;;10.30;99.90;;;;;;4980176;28;20000;-80
2021/12/24 14:36:17;;;;;;;;;;;10.20;99.90;;;;;;4994401;28;19925;-81
2021/12/24 14:38:43;;;;;;;;;;;10.10;99.90;;;;;;4993615;28;19921;-81
2021/12/24 14:41:15;;;;;;;;;;;10.00;99.90;;;;;;4993074;28;20005;-80
2021/12/24 14:43:41;;;;;;;;;;;10.00;99.90;;;;;;4993548;28;20233;-79
2021/12/24 14:46:07;;;;;;;;;;;9.90;99.90;;;;;;4976919;28;19910;-80
2021/12/24 14:48:35;;;;;;;;;;;9.90;99.90;;;;;;4993327;28;19996;-80
2021/12/24 14:51:03;;;;;;;;;;;9.80;99.90;;;;;;4993970;28;19910;-82
2021/12/24 14:53:39;;;;;;;;;;;9.80;99.90;;;;;;4994080;28;19952;-80
2021/12/24 14:56:06;;;;;;;;;;;9.70;99.90;;;;;;4993488;28;19918;-80
2021/12/24 14:58:36;;;;;;;;;;;9.70;99.90;;;;;;4993743;28;20299;-82
2021/12/24 15:01:04;;;;;;;;;;;9.60;99.90;;;;;;4993231;28;20290;-82
2021/12/24 15:03:31;;;;;;;;;;;9.50;99.90;;;;;;4993726;28;19966;-80
2021/12/24 15:05:57;;;;;;;;;;;9.50;99.90;;;;;;4996237;28;20363;-79
2021/12/24 15:08:33;;;;;;;;;;;9.50;99.90;;;;;;4993727;28;19909;-79
2021/12/24 15:11:07;;;;;;;;;;;9.60;99.90;;;;;;4997301;28;19906;-80
2021/12/24 15:13:33;;;;;;;;;;;9.60;99.90;;;;;;4994387;28;19905;-80
2021/12/24 15:16:01;;;;;;;;;;;9.60;99.90;;;;;;4992825;28;19975;-80
2021/12/24 15:18:27;;;;;;;;;;;9.70;99.90;;;;;;4993045;28;19910;-81
2021/12/24 15:20:53;;;;;;;;;;;9.70;99.90;;;;;;4993296;28;19996;-81
2021/12/24 15:23:18;;;;;;;;;;;9.60;99.90;;;;;;4993560;28;19905;-80
2021/12/24 15:25:45;;;;;;;;;;;9.60;99.90;;;;;;4994622;28;19905;-80
2021/12/24 15:28:12;;;;;;;;;;;9.50;99.90;;;;;;4993167;28;19910;-81
2021/12/24 15:30:38;;;;;;;;;;;9.40;99.90;;;;;;4993698;28;20354;-81
2021/12/24 15:33:04;;;;;;;;;;;9.30;99.90;;;;;;4976982;28;19949;-80
2021/12/24 15:35:32;;;;;;;;;;;9.30;99.90;;;;;;4994426;28;19914;-81
2021/12/24 15:37:58;;;;;;;;;;;9.30;99.90;;;;;;4977149;28;20373;-81
2021/12/24 15:40:23;;;;;;;;;;;9.30;99.90;;;;;;4977236;28;20364;-81
2021/12/24 15:42:49;;;;;;;;;;;9.30;99.90;;;;;;4993451;28;20004;-81
2021/12/24 15:45:15;;;;;;;;;;;9.40;99.90;;;;;;4978141;28;19921;-80
2021/12/24 15:47:40;;;;;;;;;;;9.40;99.90;;;;;;4993381;28;19993;-81
2021/12/24 15:50:06;;;;;;;;;;;9.50;99.90;;;;;;4993217;28;19906;-82
2021/12/24 15:52:32;;;;;;;;;;;9.50;99.90;;;;;;4993353;28;20012;-81
2021/12/24 15:54:57;;;;;;;;;;;9.50;99.90;;;;;;4993712;28;20281;-80
2021/12/24 15:57:23;;;;;;;;;;;9.60;99.90;;;;;;4976235;28;20354;-81
2021/12/24 15:59:48;;;;;;;;;;;9.60;99.90;;;;;;4992525;28;19913;-80
2021/12/24 16:02:14;;;;;;;;;;;9.60;99.90;;;;;;4979625;28;20323;-81
2021/12/24 16:04:40;;;;;;;;;;;9.50;99.90;;;;;;4996644;28;19909;-79
2021/12/24 16:07:05;;;;;;;;;;;9.50;99.90;;;;;;4979847;28;19910;-81
2021/12/24 16:09:31;;;;;;;;;;;9.40;99.90;;;;;;4995993;28;19955;-80
2021/12/24 16:11:57;;;;;;;;;;;9.40;99.90;;;;;;4996059;28;19906;-80
2021/12/24 16:14:23;;;;;;;;;;;9.30;99.90;;;;;;4995913;28;19905;-81
2021/12/24 16:16:49;;;;;;;;;;;9.30;99.90;;;;;;4996652;28;19997;-80
2021/12/24 16:19:15;;;;;;;;;;;9.30;99.90;;;;;;4995892;28;19971;-82